createdAt,value
2023-02-16T00:00:24.510Z,24.40
2023-02-16T00:02:56.849Z,24.25
2023-02-16T00:05:30.679Z,24.05
2023-02-16T00:08:01.034Z,24.01
2023-02-16T00:10:36.427Z,23.90
2023-02-16T00:13:46.122Z,23.83
2023-02-16T00:16:25.767Z,23.71
2023-02-16T00:18:55.572Z,23.51
2023-02-16T00:21:25.254Z,23.27
2023-02-16T00:23:54.997Z,23.30
2023-02-16T00:26:29.356Z,23.14
2023-02-16T00:29:02.295Z,23.09
2023-02-16T00:31:37.887Z,23.03
2023-02-16T00:34:35.897Z,22.95
2023-02-16T00:37:13.132Z,23.01
2023-02-16T00:39:43.766Z,22.93
2023-02-16T00:42:23.473Z,22.86
2023-02-16T00:44:58.000Z,22.80
2023-02-16T00:47:39.493Z,22.81
2023-02-16T00:50:30.026Z,22.84
2023-02-16T00:53:04.305Z,22.80
2023-02-16T00:55:36.634Z,22.79
2023-02-16T00:58:23.236Z,22.69
2023-02-16T01:01:11.075Z,22.68
2023-02-16T01:03:40.953Z,22.65
2023-02-16T01:06:30.102Z,22.66
2023-02-16T01:09:41.822Z,22.61
2023-02-16T01:12:19.278Z,22.61
2023-02-16T01:14:51.616Z,22.54
2023-02-16T01:17:21.355Z,22.57
2023-02-16T01:19:54.056Z,22.50
2023-02-16T01:22:23.901Z,22.44
2023-02-16T01:24:53.645Z,22.42
2023-02-16T01:27:23.294Z,22.43
2023-02-16T01:29:53.001Z,22.42
2023-02-16T01:32:22.843Z,22.38
2023-02-16T01:34:52.630Z,22.43
2023-02-16T01:37:22.306Z,22.46
2023-02-16T01:39:52.544Z,22.43
2023-02-16T01:42:34.467Z,22.52
2023-02-16T01:45:19.315Z,22.62
2023-02-16T01:48:00.790Z,22.59
2023-02-16T01:50:39.629Z,22.66
2023-02-16T01:53:23.517Z,22.70
2023-02-16T01:55:57.749Z,22.70
2023-02-16T01:58:49.796Z,22.77
2023-02-16T02:01:58.943Z,22.73
2023-02-16T02:05:06.832Z,22.85
2023-02-16T02:07:51.460Z,22.92
2023-02-16T02:10:31.100Z,22.95
2023-02-16T02:13:34.255Z,23.03
2023-02-16T02:16:04.181Z,23.07
2023-02-16T02:18:33.849Z,23.13
2023-02-16T02:21:58.455Z,23.14
2023-02-16T02:25:01.516Z,23.11
2023-02-16T02:27:35.098Z,23.06
2023-02-16T02:30:10.876Z,23.13
2023-02-16T02:33:01.865Z,23.15
2023-02-16T02:35:49.623Z,23.26
2023-02-16T02:38:36.656Z,23.30
2023-02-16T02:41:11.042Z,23.28
2023-02-16T02:43:59.916Z,23.30
2023-02-16T02:46:36.938Z,23.27
2023-02-16T02:49:06.641Z,23.21
2023-02-16T02:51:39.301Z,23.20
2023-02-16T02:54:39.184Z,23.22
2023-02-16T02:57:36.482Z,23.27
2023-02-16T03:00:31.355Z,23.31
2023-02-16T03:03:23.470Z,23.36
2023-02-16T03:05:59.336Z,23.26
2023-02-16T03:08:31.435Z,23.16
2023-02-16T03:11:33.041Z,23.18
2023-02-16T03:14:10.695Z,23.20
2023-02-16T03:17:20.716Z,23.27
2023-02-16T03:20:09.847Z,23.27
2023-02-16T03:22:57.887Z,23.37
2023-02-16T03:25:47.205Z,23.41
2023-02-16T03:28:35.100Z,23.40
2023-02-16T03:31:05.141Z,23.44
2023-02-16T03:33:35.087Z,23.50
2023-02-16T03:36:05.076Z,23.55
2023-02-16T03:38:34.882Z,23.53
2023-02-16T03:41:04.862Z,23.52
2023-02-16T03:43:34.751Z,23.53
2023-02-16T03:46:04.469Z,23.52
2023-02-16T03:48:34.224Z,23.52
2023-02-16T03:51:04.273Z,23.50
2023-02-16T03:53:34.172Z,23.41
2023-02-16T03:56:03.843Z,23.50
2023-02-16T03:58:34.850Z,23.51
2023-02-16T04:01:04.890Z,23.53
2023-02-16T04:03:35.737Z,23.45
2023-02-16T04:06:08.131Z,23.36
2023-02-16T04:08:37.886Z,23.35
2023-02-16T04:11:25.446Z,23.47
2023-02-16T04:13:55.270Z,23.48
2023-02-16T04:16:25.040Z,23.50
2023-02-16T04:18:54.773Z,23.47
2023-02-16T04:21:24.516Z,23.55
2023-02-16T04:23:54.273Z,23.66
2023-02-16T04:26:24.085Z,23.73
2023-02-16T04:28:53.847Z,23.80
2023-02-16T04:31:26.151Z,23.80
2023-02-16T04:34:07.420Z,23.82
2023-02-16T04:36:37.320Z,23.79
2023-02-16T04:39:07.017Z,23.79
2023-02-16T04:41:39.512Z,23.73
2023-02-16T04:44:09.308Z,23.76
2023-02-16T04:46:39.001Z,23.83
2023-02-16T04:49:08.791Z,23.88
2023-02-16T04:51:46.659Z,23.96
2023-02-16T04:54:16.533Z,23.99
2023-02-16T04:56:49.388Z,23.96
2023-02-16T04:59:19.297Z,24.01
2023-02-16T05:01:50.532Z,23.99
2023-02-16T05:04:20.310Z,23.99
2023-02-16T05:06:49.987Z,24.00
2023-02-16T05:09:19.781Z,23.98
2023-02-16T05:12:07.372Z,24.05
2023-02-16T05:14:49.490Z,24.09
2023-02-16T05:17:22.906Z,24.05
2023-02-16T05:19:57.028Z,24.04
2023-02-16T05:22:26.896Z,24.04
2023-02-16T05:24:56.856Z,24.02
2023-02-16T05:27:31.257Z,24.02
2023-02-16T05:30:01.377Z,23.82
2023-02-16T05:32:30.989Z,23.56
2023-02-16T05:35:00.634Z,23.46
2023-02-16T05:37:34.132Z,23.41
2023-02-16T05:40:03.996Z,23.38
2023-02-16T05:42:33.613Z,23.33
2023-02-16T05:45:04.017Z,23.20
2023-02-16T05:47:33.625Z,23.09
2023-02-16T05:50:03.213Z,23.08
2023-02-16T05:52:32.921Z,23.20
2023-02-16T05:55:05.260Z,23.16
2023-02-16T05:57:36.512Z,23.20
2023-02-16T06:00:07.201Z,23.18
2023-02-16T06:02:37.054Z,23.47
2023-02-16T06:05:06.877Z,23.62
2023-02-16T06:07:39.333Z,23.72
2023-02-16T06:10:09.468Z,23.47
2023-02-16T06:12:39.159Z,23.38
2023-02-16T06:15:09.125Z,23.25
2023-02-16T06:17:38.855Z,23.15
2023-02-16T06:20:09.238Z,23.11
2023-02-16T06:22:38.909Z,23.01
2023-02-16T06:25:08.870Z,22.89
2023-02-16T06:27:38.532Z,22.82
2023-02-16T06:30:10.398Z,22.85
2023-02-16T06:32:40.200Z,22.84
2023-02-16T06:35:10.209Z,23.23
2023-02-16T06:37:39.951Z,23.81
2023-02-16T06:40:11.546Z,24.30
2023-02-16T06:42:41.197Z,24.52
2023-02-16T06:45:11.543Z,24.69
2023-02-16T06:47:41.263Z,24.82
2023-02-16T06:50:12.026Z,24.97
2023-02-16T06:52:44.347Z,25.01
2023-02-16T06:55:14.267Z,25.10
2023-02-16T06:57:43.883Z,25.12
2023-02-16T07:00:13.980Z,25.15
2023-02-16T07:02:45.322Z,25.18
2023-02-16T07:05:17.733Z,25.21
2023-02-16T07:07:47.414Z,25.17
2023-02-16T07:10:17.156Z,25.19
2023-02-16T07:12:46.818Z,25.19
2023-02-16T07:15:16.431Z,25.20
2023-02-16T07:17:49.112Z,25.20
2023-02-16T07:20:22.001Z,25.19
2023-02-16T07:22:53.878Z,25.21
2023-02-16T07:25:23.554Z,25.21
2023-02-16T07:27:53.383Z,25.19
2023-02-16T07:30:23.330Z,25.17
2023-02-16T07:32:53.047Z,25.18
2023-02-16T07:35:23.783Z,25.13
2023-02-16T07:37:53.528Z,25.14
2023-02-16T07:40:24.405Z,25.12
2023-02-16T07:42:54.040Z,25.10
2023-02-16T07:45:23.735Z,25.07
2023-02-16T07:47:53.475Z,25.11
2023-02-16T07:50:23.277Z,25.04
2023-02-16T07:52:52.989Z,25.02
2023-02-16T07:55:22.757Z,25.00
2023-02-16T07:57:56.210Z,24.98
2023-02-16T08:00:26.069Z,25.00
2023-02-16T08:02:56.019Z,24.96
2023-02-16T08:05:25.869Z,24.90
2023-02-16T08:07:55.538Z,24.89
2023-02-16T08:10:25.265Z,24.92
2023-02-16T08:12:54.952Z,24.91
2023-02-16T08:15:25.473Z,24.85
2023-02-16T08:17:55.052Z,24.81
2023-02-16T08:20:45.076Z,24.78
2023-02-16T08:23:14.203Z,24.66
2023-02-16T08:25:43.814Z,24.53
2023-02-16T08:28:16.390Z,24.41
2023-02-16T08:30:46.240Z,24.28
2023-02-16T08:33:15.818Z,24.20
2023-02-16T08:35:46.758Z,24.12
2023-02-16T08:38:18.808Z,24.08
2023-02-16T08:40:51.978Z,24.02
2023-02-16T08:43:21.724Z,23.95
2023-02-16T08:45:51.441Z,23.90
2023-02-16T08:48:25.838Z,23.80
2023-02-16T08:50:56.584Z,23.74
2023-02-16T08:53:26.846Z,23.70
2023-02-16T08:56:00.343Z,23.65
2023-02-16T08:58:30.410Z,23.65
2023-02-16T09:01:00.372Z,23.63
2023-02-16T09:03:30.481Z,23.60
2023-02-16T09:06:00.394Z,23.57
2023-02-16T09:08:30.176Z,23.55
2023-02-16T09:11:06.960Z,23.47
2023-02-16T09:13:37.378Z,23.46
2023-02-16T09:16:12.193Z,23.42
2023-02-16T09:18:42.440Z,23.40
2023-02-16T09:21:13.918Z,23.39
2023-02-16T09:23:45.071Z,23.35
2023-02-16T09:26:14.836Z,23.33
2023-02-16T09:28:44.970Z,23.28
2023-02-16T09:31:15.709Z,23.26
2023-02-16T09:33:47.845Z,23.21
2023-02-16T09:36:17.945Z,23.19
2023-02-16T09:38:49.210Z,23.16
2023-02-16T09:41:37.043Z,23.16
2023-02-16T09:44:27.381Z,23.12
2023-02-16T09:46:58.906Z,23.08
2023-02-16T09:49:32.021Z,23.06
2023-02-16T09:52:16.006Z,23.03
2023-02-16T09:54:54.223Z,23.01
2023-02-16T09:57:45.253Z,23.00
2023-02-16T10:00:46.737Z,22.97
2023-02-16T10:03:36.079Z,22.93
2023-02-16T10:06:23.913Z,22.90
2023-02-16T10:08:57.318Z,22.83
2023-02-16T10:11:43.238Z,22.83
2023-02-16T10:14:39.356Z,22.81
2023-02-16T10:17:30.110Z,22.80
2023-02-16T10:20:10.778Z,22.75
2023-02-16T10:22:58.845Z,22.73
2023-02-16T10:25:41.465Z,22.69
2023-02-16T10:28:17.044Z,22.68
2023-02-16T10:30:59.013Z,22.67
2023-02-16T10:33:38.124Z,22.63
2023-02-16T10:36:33.587Z,22.62
2023-02-16T10:39:44.592Z,22.60
2023-02-16T10:42:36.262Z,22.57
2023-02-16T10:45:20.606Z,22.54
2023-02-16T10:47:50.298Z,22.49
2023-02-16T10:50:41.788Z,22.50
2023-02-16T10:53:29.617Z,22.47
2023-02-16T10:56:01.804Z,22.46
2023-02-16T10:58:41.297Z,22.43
2023-02-16T11:01:24.240Z,22.37
2023-02-16T11:03:57.080Z,22.40
2023-02-16T11:06:30.728Z,22.38
2023-02-16T11:09:02.535Z,22.36
2023-02-16T11:11:38.057Z,22.32
2023-02-16T11:14:31.982Z,22.31
2023-02-16T11:17:12.824Z,22.27
2023-02-16T11:19:43.617Z,22.26
2023-02-16T11:22:31.410Z,22.24
2023-02-16T11:25:22.156Z,22.24
2023-02-16T11:27:59.337Z,22.24
2023-02-16T11:30:37.392Z,22.19
2023-02-16T11:33:20.732Z,22.16
2023-02-16T11:35:50.373Z,22.15
2023-02-16T11:38:32.214Z,22.15
2023-02-16T11:41:03.351Z,22.11
2023-02-16T11:43:38.301Z,22.10
2023-02-16T11:46:25.890Z,22.10
2023-02-16T11:48:55.602Z,22.06
2023-02-16T11:51:36.202Z,22.05
2023-02-16T11:54:09.620Z,22.01
2023-02-16T11:56:39.384Z,22.02
2023-02-16T11:59:17.476Z,22.00
2023-02-16T12:02:06.183Z,21.98
2023-02-16T12:05:09.713Z,21.96
2023-02-16T12:07:43.150Z,21.94
2023-02-16T12:10:14.633Z,21.94
2023-02-16T12:13:05.669Z,21.93
2023-02-16T12:15:38.743Z,21.90
2023-02-16T12:18:16.738Z,21.90
2023-02-16T12:21:09.415Z,21.88
2023-02-16T12:23:42.869Z,21.85
2023-02-16T12:26:34.686Z,21.83
2023-02-16T12:29:31.601Z,21.83
2023-02-16T12:32:28.266Z,21.79
2023-02-16T12:35:34.500Z,21.79
2023-02-16T12:38:32.464Z,21.75
2023-02-16T12:41:12.423Z,21.73
2023-02-16T12:43:49.157Z,21.74
2023-02-16T12:46:24.983Z,21.73
2023-02-16T12:48:57.613Z,21.71
2023-02-16T12:51:41.970Z,21.69
2023-02-16T12:54:31.026Z,21.68
2023-02-16T12:57:02.923Z,21.67
2023-02-16T12:59:59.736Z,21.65
2023-02-16T13:02:37.376Z,21.65
2023-02-16T13:05:13.923Z,21.63
2023-02-16T13:07:44.843Z,21.61
2023-02-16T13:10:23.076Z,21.59
2023-02-16T13:13:05.144Z,21.58
2023-02-16T13:15:36.064Z,21.57
2023-02-16T13:18:18.714Z,21.54
2023-02-16T13:21:09.872Z,21.53
2023-02-16T13:23:52.056Z,21.49
2023-02-16T13:26:26.073Z,21.50
2023-02-16T13:29:12.943Z,21.50
2023-02-16T13:32:40.185Z,21.49
2023-02-16T13:35:22.364Z,21.46
2023-02-16T13:38:07.360Z,21.42
2023-02-16T13:40:45.935Z,21.42
2023-02-16T13:43:33.552Z,21.39
2023-02-16T13:46:09.013Z,21.38
2023-02-16T13:48:51.950Z,21.37
2023-02-16T13:51:23.495Z,21.37
2023-02-16T13:53:56.243Z,21.35
2023-02-16T13:56:32.454Z,21.34
2023-02-16T13:59:22.638Z,21.31
2023-02-16T14:01:58.558Z,21.25
2023-02-16T14:04:28.506Z,21.32
2023-02-16T14:07:09.842Z,21.30
2023-02-16T14:09:42.591Z,21.28
2023-02-16T14:12:15.961Z,21.26
2023-02-16T14:14:45.625Z,21.24
2023-02-16T14:17:24.397Z,21.22
2023-02-16T14:20:03.841Z,21.22
2023-02-16T14:22:58.084Z,21.22
2023-02-16T14:25:32.354Z,21.21
2023-02-16T14:28:05.357Z,21.26
2023-02-16T14:30:41.625Z,21.19
2023-02-16T14:33:20.462Z,21.16
2023-02-16T14:36:19.991Z,21.16
2023-02-16T14:38:50.684Z,21.15
2023-02-16T14:41:26.354Z,21.14
2023-02-16T14:44:16.816Z,21.14
2023-02-16T14:47:08.790Z,21.13
2023-02-16T14:50:05.361Z,21.13
2023-02-16T14:53:18.819Z,21.12
2023-02-16T14:56:04.451Z,21.09
2023-02-16T14:58:46.988Z,21.07
2023-02-16T15:01:18.470Z,21.06
2023-02-16T15:03:49.705Z,21.04
2023-02-16T15:06:33.705Z,21.05
2023-02-16T15:09:08.048Z,21.02
2023-02-16T15:11:57.316Z,21.09
2023-02-16T15:14:26.923Z,21.01
2023-02-16T15:16:57.636Z,20.99
2023-02-16T15:19:30.288Z,21.00
2023-02-16T15:22:23.564Z,20.98
2023-02-16T15:25:01.046Z,20.93
2023-02-16T15:27:31.128Z,20.94
2023-02-16T15:30:33.397Z,20.94
2023-02-16T15:33:08.097Z,20.92
2023-02-16T15:35:44.889Z,20.88
2023-02-16T15:38:26.235Z,20.91
2023-02-16T15:40:57.025Z,20.89
2023-02-16T15:43:50.612Z,20.91
2023-02-16T15:46:33.242Z,20.88
2023-02-16T15:49:29.372Z,20.89
2023-02-16T15:51:59.576Z,20.85
2023-02-16T15:54:33.565Z,20.85
2023-02-16T15:57:04.933Z,20.82
2023-02-16T15:59:42.897Z,20.81
2023-02-16T16:02:14.081Z,20.77
2023-02-16T16:04:45.243Z,20.79
2023-02-16T16:07:17.241Z,20.76
2023-02-16T16:09:47.460Z,20.76
2023-02-16T16:12:18.289Z,20.79
2023-02-16T16:14:59.660Z,20.76
2023-02-16T16:17:31.396Z,20.75
2023-02-16T16:20:01.504Z,20.73
2023-02-16T16:22:40.149Z,20.74
2023-02-16T16:25:45.130Z,20.75
2023-02-16T16:28:30.134Z,20.73
2023-02-16T16:31:13.913Z,20.70
2023-02-16T16:34:00.258Z,20.69
2023-02-16T16:36:35.118Z,20.68
2023-02-16T16:39:23.388Z,20.69
2023-02-16T16:42:21.476Z,20.70
2023-02-16T16:44:59.738Z,20.66
2023-02-16T16:47:35.216Z,20.61
2023-02-16T16:50:17.066Z,20.58
2023-02-16T16:52:50.962Z,20.60
2023-02-16T16:55:24.496Z,20.58
2023-02-16T16:57:59.147Z,20.59
2023-02-16T17:00:35.242Z,20.56
2023-02-16T17:03:05.771Z,20.57
2023-02-16T17:05:36.244Z,20.57
2023-02-16T17:08:05.895Z,20.53
2023-02-16T17:10:35.821Z,20.57
2023-02-16T17:13:05.767Z,20.57
2023-02-16T17:15:42.961Z,20.57
2023-02-16T17:18:17.239Z,20.56
2023-02-16T17:20:46.662Z,20.61
2023-02-16T17:23:17.539Z,20.54
2023-02-16T17:25:50.246Z,20.52
2023-02-16T17:28:20.285Z,20.51
2023-02-16T17:30:50.037Z,20.48
2023-02-16T17:33:19.737Z,20.47
2023-02-16T17:35:49.439Z,20.46
2023-02-16T17:38:23.373Z,20.47
2023-02-16T17:40:54.799Z,20.46
2023-02-16T17:43:24.837Z,20.46
2023-02-16T17:45:55.461Z,20.44
2023-02-16T17:48:31.831Z,20.43
2023-02-16T17:51:01.580Z,20.40
2023-02-16T17:53:31.296Z,20.41
2023-02-16T17:56:01.024Z,20.42
2023-02-16T17:58:30.716Z,20.40
2023-02-16T18:01:00.381Z,20.40
2023-02-16T18:03:30.184Z,20.37
2023-02-16T18:05:59.965Z,20.38
2023-02-16T18:08:29.611Z,20.37
2023-02-16T18:11:03.519Z,20.37
2023-02-16T18:13:33.247Z,20.38
2023-02-16T18:16:08.333Z,20.36
2023-02-16T18:18:41.270Z,20.37
2023-02-16T18:21:10.981Z,20.37
2023-02-16T18:23:40.847Z,20.34
2023-02-16T18:26:10.585Z,20.34
2023-02-16T18:28:40.242Z,20.34
2023-02-16T18:31:10.085Z,20.35
2023-02-16T18:33:39.957Z,20.34
2023-02-16T18:36:10.016Z,20.33
2023-02-16T18:38:39.722Z,20.30
2023-02-16T18:41:10.671Z,20.30
2023-02-16T18:43:40.401Z,20.31
2023-02-16T18:46:10.630Z,20.30
2023-02-16T18:48:40.344Z,20.29
2023-02-16T18:51:11.201Z,20.28
2023-02-16T18:53:44.695Z,20.28
2023-02-16T18:56:14.659Z,20.30
2023-02-16T18:58:45.092Z,20.28
2023-02-16T19:01:26.585Z,20.26
2023-02-16T19:03:56.314Z,20.27
2023-02-16T19:06:26.281Z,20.25
2023-02-16T19:08:58.122Z,20.25
2023-02-16T19:11:29.582Z,20.22
2023-02-16T19:13:59.377Z,20.23
2023-02-16T19:16:28.971Z,20.20
2023-02-16T19:18:58.643Z,20.22
2023-02-16T19:21:28.315Z,20.20
2023-02-16T19:23:58.002Z,20.20
2023-02-16T19:26:27.854Z,20.18
2023-02-16T19:29:00.312Z,20.17
2023-02-16T19:31:31.562Z,20.17
2023-02-16T19:34:01.866Z,20.16
2023-02-16T19:36:32.998Z,20.15
2023-02-16T19:39:03.484Z,20.16
2023-02-16T19:41:43.090Z,20.14
2023-02-16T19:44:14.405Z,20.12
2023-02-16T19:46:44.220Z,20.13
2023-02-16T19:49:16.056Z,20.11
2023-02-16T19:51:47.808Z,20.12
2023-02-16T19:54:17.565Z,20.13
2023-02-16T19:56:47.183Z,20.12
2023-02-16T19:59:17.560Z,20.07
2023-02-16T20:01:47.199Z,20.02
2023-02-16T20:04:19.515Z,20.03
2023-02-16T20:06:50.654Z,20.03
2023-02-16T20:09:20.401Z,20.03
2023-02-16T20:11:50.220Z,20.02
2023-02-16T20:14:19.955Z,19.98
2023-02-16T20:16:56.255Z,19.98
2023-02-16T20:19:25.909Z,19.98
2023-02-16T20:21:55.624Z,20.00
2023-02-16T20:24:28.017Z,19.98
2023-02-16T20:26:57.723Z,19.92
2023-02-16T20:29:30.132Z,19.86
2023-02-16T20:32:00.014Z,20.07
2023-02-16T20:34:29.916Z,20.40
2023-02-16T20:36:59.878Z,20.69
2023-02-16T20:39:29.641Z,20.89
2023-02-16T20:42:00.023Z,21.23
2023-02-16T20:44:29.866Z,21.41
2023-02-16T20:46:59.646Z,21.76
2023-02-16T20:49:29.432Z,22.07
2023-02-16T20:51:59.180Z,22.26
2023-02-16T20:54:28.871Z,22.45
2023-02-16T20:56:58.513Z,22.60
2023-02-16T20:59:28.192Z,22.75
2023-02-16T21:01:58.089Z,22.63
2023-02-16T21:04:27.802Z,22.62
2023-02-16T21:06:57.584Z,22.78
2023-02-16T21:09:27.394Z,22.80
2023-02-16T21:11:57.156Z,22.88
2023-02-16T21:14:26.978Z,23.04
2023-02-16T21:16:56.616Z,23.13
2023-02-16T21:19:28.958Z,23.21
2023-02-16T21:21:59.043Z,23.36
2023-02-16T21:24:28.817Z,23.49
2023-02-16T21:26:58.577Z,23.60
2023-02-16T21:29:28.421Z,23.76
2023-02-16T21:31:58.157Z,23.84
2023-02-16T21:34:27.971Z,23.92
2023-02-16T21:36:57.655Z,23.98
2023-02-16T21:39:47.133Z,24.07
2023-02-16T21:42:16.839Z,24.17
2023-02-16T21:44:46.448Z,24.34
2023-02-16T21:47:34.749Z,24.40
2023-02-16T21:50:04.372Z,24.43
2023-02-16T21:52:34.196Z,24.53
2023-02-16T21:55:22.456Z,24.60
2023-02-16T21:57:54.400Z,24.72
2023-02-16T22:00:24.237Z,24.74
2023-02-16T22:02:53.856Z,24.81
2023-02-16T22:05:25.915Z,24.82
2023-02-16T22:07:55.610Z,24.79
2023-02-16T22:10:25.271Z,24.79
2023-02-16T22:12:55.010Z,24.82
2023-02-16T22:15:28.226Z,24.80
2023-02-16T22:17:58.101Z,24.80
2023-02-16T22:20:27.844Z,24.76
2023-02-16T22:23:00.562Z,24.74
2023-02-16T22:25:30.209Z,24.79
2023-02-16T22:27:59.915Z,24.81
2023-02-16T22:30:29.684Z,24.83
2023-02-16T22:32:59.427Z,24.84
2023-02-16T22:35:29.184Z,24.86
2023-02-16T22:37:58.846Z,24.89
2023-02-16T22:40:28.661Z,24.91
2023-02-16T22:42:58.306Z,24.95
2023-02-16T22:45:28.049Z,25.02
2023-02-16T22:47:57.738Z,25.05
2023-02-16T22:50:27.352Z,25.08
2023-02-16T22:52:57.161Z,25.08
2023-02-16T22:55:26.878Z,25.16
2023-02-16T22:57:56.678Z,25.18
2023-02-16T23:00:26.504Z,25.19
2023-02-16T23:02:56.079Z,25.23
2023-02-16T23:05:25.826Z,25.27
2023-02-16T23:07:55.563Z,25.31
2023-02-16T23:10:25.245Z,25.33
2023-02-16T23:12:54.966Z,25.37
2023-02-16T23:15:24.640Z,25.43
2023-02-16T23:17:54.284Z,25.44
2023-02-16T23:20:26.589Z,25.45
2023-02-16T23:22:56.327Z,25.51
2023-02-16T23:25:43.605Z,25.50
2023-02-16T23:28:13.571Z,25.49
2023-02-16T23:30:47.191Z,25.56
2023-02-16T23:33:16.912Z,25.62
2023-02-16T23:35:50.529Z,25.63
2023-02-16T23:38:20.217Z,25.58
2023-02-16T23:41:00.978Z,25.67
2023-02-16T23:43:30.551Z,25.76
2023-02-16T23:46:01.782Z,25.77
2023-02-16T23:48:31.851Z,25.73
2023-02-16T23:51:04.349Z,25.78
2023-02-16T23:53:37.090Z,25.84
2023-02-16T23:56:08.560Z,25.48
2023-02-16T23:58:42.553Z,24.69
